createdAt,value
2017-10-17T00:00:59.072Z,73.79
2017-10-17T00:01:59.051Z,73.79
2017-10-17T00:02:59.032Z,73.98
2017-10-17T00:03:59.012Z,73.50
2017-10-17T00:04:58.991Z,74.27
2017-10-17T00:05:59.219Z,74.17
2017-10-17T00:06:58.949Z,73.69
2017-10-17T00:07:58.924Z,73.15
2017-10-17T00:08:58.903Z,72.19
2017-10-17T00:09:58.882Z,70.59
2017-10-17T00:10:58.861Z,71.08
2017-10-17T00:11:58.839Z,71.81
2017-10-17T00:12:58.820Z,71.61
2017-10-17T00:13:58.796Z,72.19
2017-10-17T00:14:58.779Z,72.09
2017-10-17T00:15:58.758Z,71.71
2017-10-17T00:16:58.738Z,71.91
2017-10-17T00:17:58.716Z,71.46
2017-10-17T00:18:58.700Z,70.65
2017-10-17T00:19:58.676Z,69.34
2017-10-17T00:20:58.648Z,70.01
2017-10-17T00:21:58.631Z,70.40
2017-10-17T00:22:58.613Z,69.53
2017-10-17T00:23:58.887Z,69.44
2017-10-17T00:24:58.593Z,69.63
2017-10-17T00:25:58.545Z,69.44
2017-10-17T00:26:58.526Z,69.06
2017-10-17T00:27:58.508Z,68.57
2017-10-17T00:28:58.484Z,68.48
2017-10-17T00:29:58.465Z,67.45
2017-10-17T00:30:58.441Z,67.45
2017-10-17T00:31:58.423Z,67.83
2017-10-17T00:32:58.397Z,68.51
2017-10-17T00:33:58.380Z,68.29
2017-10-17T00:34:58.362Z,68.48
2017-10-17T00:35:58.589Z,68.09
2017-10-17T00:36:58.323Z,68.67
2017-10-17T00:37:58.295Z,68.51
2017-10-17T00:38:58.274Z,68.48
2017-10-17T00:39:58.257Z,68.13
2017-10-17T00:40:58.585Z,68.32
2017-10-17T00:41:58.212Z,68.29
2017-10-17T00:42:58.191Z,68.32
2017-10-17T00:43:58.172Z,68.41
2017-10-17T00:44:58.148Z,68.57
2017-10-17T00:45:58.128Z,68.48
2017-10-17T00:46:58.110Z,69.53
2017-10-17T00:47:58.090Z,69.44
2017-10-17T00:48:58.068Z,69.24
2017-10-17T00:49:58.051Z,69.73
2017-10-17T00:50:58.031Z,70.11
2017-10-17T00:51:58.006Z,70.30
2017-10-17T00:52:57.989Z,70.11
2017-10-17T00:53:57.984Z,70.21
2017-10-17T00:54:57.943Z,70.30
2017-10-17T00:55:57.931Z,70.21
2017-10-17T00:56:57.904Z,70.30
2017-10-17T00:57:57.885Z,69.92
2017-10-17T00:58:58.112Z,70.01
2017-10-17T00:59:57.842Z,70.21
2017-10-17T01:00:57.816Z,70.27
2017-10-17T01:01:57.800Z,70.40
2017-10-17T01:02:57.782Z,70.30
2017-10-17T01:03:57.756Z,70.84
2017-10-17T01:04:57.738Z,70.75
2017-10-17T01:05:57.719Z,71.04
2017-10-17T01:06:57.691Z,71.14
2017-10-17T01:07:57.674Z,71.23
2017-10-17T01:08:57.665Z,71.04
2017-10-17T01:09:57.633Z,70.84
2017-10-17T01:10:57.864Z,71.42
2017-10-17T01:11:57.598Z,71.81
2017-10-17T01:12:57.566Z,71.71
2017-10-17T01:13:57.547Z,71.71
2017-10-17T01:14:57.529Z,72.09
2017-10-17T01:15:57.508Z,72.19
2017-10-17T01:16:57.837Z,72.83
2017-10-17T01:17:57.465Z,73.31
2017-10-17T01:18:57.445Z,73.21
2017-10-17T01:19:57.426Z,73.02
2017-10-17T01:20:57.405Z,73.31
2017-10-17T01:21:57.381Z,73.41
2017-10-17T01:22:57.357Z,73.50
2017-10-17T01:23:57.339Z,73.50
2017-10-17T01:24:57.319Z,73.21
2017-10-17T01:25:57.295Z,73.11
2017-10-17T01:26:57.293Z,73.31
2017-10-17T01:27:57.254Z,73.50
2017-10-17T01:28:57.235Z,73.79
2017-10-17T01:29:57.214Z,73.50
2017-10-17T01:30:57.195Z,73.79
2017-10-17T01:31:57.173Z,73.79
2017-10-17T01:32:57.154Z,74.27
2017-10-17T01:33:57.144Z,73.60
2017-10-17T01:34:57.110Z,73.69
2017-10-17T01:35:57.085Z,73.88
2017-10-17T01:36:57.066Z,73.79
2017-10-17T01:37:57.049Z,73.50
2017-10-17T01:38:57.027Z,73.98
2017-10-17T01:39:57.353Z,74.08
2017-10-17T01:40:56.985Z,74.37
2017-10-17T01:41:56.958Z,74.55
2017-10-17T01:42:56.946Z,74.27
2017-10-17T01:43:56.919Z,74.46
2017-10-17T01:44:56.899Z,74.46
2017-10-17T01:45:57.228Z,74.17
2017-10-17T01:46:56.852Z,74.55
2017-10-17T01:47:56.834Z,75.04
2017-10-17T01:48:56.810Z,75.04
2017-10-17T01:49:56.791Z,75.04
2017-10-17T01:50:56.773Z,75.10
2017-10-17T01:51:56.748Z,75.10
2017-10-17T01:52:56.725Z,76.06
2017-10-17T01:53:56.722Z,75.87
2017-10-17T01:54:56.708Z,75.87
2017-10-17T01:55:56.667Z,75.67
2017-10-17T01:56:56.642Z,76.15
2017-10-17T01:57:56.620Z,76.25
2017-10-17T01:58:56.597Z,76.82
2017-10-17T01:59:56.579Z,76.34
2017-10-17T02:00:56.559Z,76.06
2017-10-17T02:01:56.534Z,76.15
2017-10-17T02:02:56.516Z,76.15
2017-10-17T02:03:56.498Z,75.87
2017-10-17T02:04:56.472Z,75.96
2017-10-17T02:05:56.456Z,75.77
2017-10-17T02:06:56.428Z,76.34
2017-10-17T02:07:56.413Z,76.15
2017-10-17T02:08:56.393Z,76.73
2017-10-17T02:09:56.616Z,76.92
2017-10-17T02:10:56.345Z,76.73
2017-10-17T02:11:56.322Z,77.01
2017-10-17T02:12:56.298Z,76.64
2017-10-17T02:13:56.286Z,76.82
2017-10-17T02:14:56.567Z,76.82
2017-10-17T02:15:56.236Z,76.82
2017-10-17T02:16:56.213Z,77.17
2017-10-17T02:17:56.200Z,77.36
2017-10-17T02:18:56.172Z,77.36
2017-10-17T02:19:56.153Z,77.08
2017-10-17T02:20:56.129Z,77.26
2017-10-17T02:21:56.107Z,77.01
2017-10-17T02:22:56.086Z,76.54
2017-10-17T02:23:56.068Z,77.08
2017-10-17T02:24:56.043Z,77.65
2017-10-17T02:25:56.028Z,77.36
2017-10-17T02:26:56.250Z,77.17
2017-10-17T02:27:55.983Z,77.26
2017-10-17T02:28:55.956Z,77.46
2017-10-17T02:29:55.939Z,77.26
2017-10-17T02:30:55.914Z,76.44
2017-10-17T02:31:55.894Z,76.82
2017-10-17T02:32:55.876Z,77.17
2017-10-17T02:33:55.849Z,77.01
2017-10-17T02:34:55.827Z,76.98
2017-10-17T02:35:55.809Z,77.84
2017-10-17T02:36:55.784Z,77.84
2017-10-17T02:37:56.031Z,77.84
2017-10-17T02:38:55.755Z,77.65
2017-10-17T02:39:55.724Z,78.23
2017-10-17T02:40:55.697Z,77.75
2017-10-17T02:41:55.679Z,77.26
2017-10-17T02:42:55.655Z,77.84
2017-10-17T02:43:55.637Z,77.75
2017-10-17T02:44:55.618Z,77.36
2017-10-17T02:45:55.592Z,77.08
2017-10-17T02:46:55.573Z,77.36
2017-10-17T02:47:55.552Z,77.46
2017-10-17T02:48:55.528Z,77.46
2017-10-17T02:49:55.504Z,77.08
2017-10-17T02:50:55.492Z,77.26
2017-10-17T02:51:55.466Z,76.98
2017-10-17T02:52:55.443Z,77.17
2017-10-17T02:53:55.419Z,77.46
2017-10-17T02:54:55.415Z,76.88
2017-10-17T02:55:55.627Z,77.08
2017-10-17T02:56:55.354Z,77.46
2017-10-17T02:57:55.331Z,77.36
2017-10-17T02:58:55.312Z,77.08
2017-10-17T02:59:55.293Z,77.65
2017-10-17T03:00:55.270Z,77.75
2017-10-17T03:01:55.552Z,77.46
2017-10-17T03:02:55.228Z,77.46
2017-10-17T03:03:55.210Z,77.56
2017-10-17T03:04:55.180Z,77.56
2017-10-17T03:05:55.159Z,77.84
2017-10-17T03:06:55.139Z,77.56
2017-10-17T03:07:55.369Z,77.36
2017-10-17T03:08:55.093Z,77.17
2017-10-17T03:09:55.079Z,77.26
2017-10-17T03:10:55.057Z,77.65
2017-10-17T03:11:55.030Z,77.84
2017-10-17T03:12:55.011Z,78.42
2017-10-17T03:13:55.585Z,78.13
2017-10-17T03:14:54.964Z,78.13
2017-10-17T03:15:54.943Z,77.65
2017-10-17T03:16:54.921Z,78.42
2017-10-17T03:17:54.900Z,78.13
2017-10-17T03:18:54.883Z,78.13
2017-10-17T03:19:54.858Z,78.03
2017-10-17T03:20:54.841Z,78.52
2017-10-17T03:21:54.814Z,78.61
2017-10-17T03:22:54.791Z,78.61
2017-10-17T03:23:54.778Z,78.61
2017-10-17T03:24:54.746Z,78.61
2017-10-17T03:25:54.731Z,78.32
2017-10-17T03:26:54.704Z,78.32
2017-10-17T03:27:54.684Z,78.61
2017-10-17T03:28:54.664Z,78.52
2017-10-17T03:29:54.640Z,78.57
2017-10-17T03:30:54.918Z,78.42
2017-10-17T03:31:54.601Z,78.61
2017-10-17T03:32:54.577Z,78.61
2017-10-17T03:33:54.551Z,78.47
2017-10-17T03:34:54.532Z,78.90
2017-10-17T03:35:54.509Z,78.86
2017-10-17T03:36:54.486Z,79.05
2017-10-17T03:37:54.466Z,79.34
2017-10-17T03:38:54.442Z,79.34
2017-10-17T03:39:54.430Z,79.14
2017-10-17T03:40:54.398Z,79.53
2017-10-17T03:41:54.378Z,80.30
2017-10-17T03:42:54.360Z,80.20
2017-10-17T03:43:54.343Z,80.01
2017-10-17T03:44:54.312Z,80.11
2017-10-17T03:45:54.297Z,79.91
2017-10-17T03:46:54.269Z,79.38
2017-10-17T03:47:54.246Z,78.86
2017-10-17T03:48:54.474Z,79.34
2017-10-17T03:49:54.211Z,78.80
2017-10-17T03:50:54.180Z,79.05
2017-10-17T03:51:54.160Z,79.82
2017-10-17T03:52:54.136Z,80.11
2017-10-17T03:53:54.116Z,80.49
2017-10-17T03:54:54.096Z,80.40
2017-10-17T03:55:54.075Z,81.07
2017-10-17T03:56:54.050Z,80.87
2017-10-17T03:57:54.029Z,80.78
2017-10-17T03:58:54.013Z,81.26
2017-10-17T03:59:53.989Z,81.45
2017-10-17T04:00:53.973Z,80.87
2017-10-17T04:01:53.940Z,81.45
2017-10-17T04:02:53.920Z,81.64
2017-10-17T04:03:53.902Z,81.41
2017-10-17T04:04:53.877Z,81.26
2017-10-17T04:05:54.103Z,81.45
2017-10-17T04:06:53.836Z,82.18
2017-10-17T04:07:53.813Z,82.46
2017-10-17T04:08:53.786Z,82.56
2017-10-17T04:09:53.774Z,81.70
2017-10-17T04:10:53.747Z,82.37
2017-10-17T04:11:53.996Z,82.27
2017-10-17T04:12:53.702Z,82.85
2017-10-17T04:13:53.677Z,82.75
2017-10-17T04:14:53.660Z,82.65
2017-10-17T04:15:53.633Z,82.65
2017-10-17T04:16:53.614Z,83.42
2017-10-17T04:17:53.590Z,83.14
2017-10-17T04:18:53.576Z,83.42
2017-10-17T04:19:53.546Z,83.04
2017-10-17T04:20:53.521Z,83.23
2017-10-17T04:21:53.504Z,83.42
2017-10-17T04:22:53.482Z,83.52
2017-10-17T04:23:53.460Z,83.23
2017-10-17T04:24:53.441Z,83.42
2017-10-17T04:25:53.415Z,83.61
2017-10-17T04:26:53.391Z,83.33
2017-10-17T04:27:53.367Z,83.42
2017-10-17T04:28:53.346Z,83.42
2017-10-17T04:29:53.580Z,83.71
2017-10-17T04:30:53.302Z,83.71
2017-10-17T04:31:53.281Z,84.38
2017-10-17T04:32:53.260Z,84.67
2017-10-17T04:33:53.234Z,84.09
2017-10-17T04:34:53.216Z,84.58
2017-10-17T04:35:53.494Z,84.63
2017-10-17T04:36:53.174Z,84.53
2017-10-17T04:37:53.150Z,85.49
2017-10-17T04:38:53.123Z,84.82
2017-10-17T04:39:53.114Z,84.95
2017-10-17T04:40:53.081Z,84.91
2017-10-17T04:41:53.060Z,84.95
2017-10-17T04:42:53.038Z,85.78
2017-10-17T04:43:53.014Z,85.39
2017-10-17T04:44:52.989Z,85.78
2017-10-17T04:45:52.969Z,86.25
2017-10-17T04:46:53.252Z,86.07
2017-10-17T04:47:52.931Z,85.88
2017-10-17T04:48:52.904Z,86.16
2017-10-17T04:49:52.881Z,86.16
2017-10-17T04:50:52.861Z,86.07
2017-10-17T04:51:52.841Z,86.64
2017-10-17T04:52:52.813Z,86.16
2017-10-17T04:53:52.792Z,85.88
2017-10-17T04:54:52.770Z,86.25
2017-10-17T04:55:52.746Z,86.25
2017-10-17T04:56:52.725Z,86.54
2017-10-17T04:57:52.700Z,86.25
2017-10-17T04:58:52.681Z,86.25
2017-10-17T04:59:52.658Z,86.74
2017-10-17T05:00:52.641Z,86.45
2017-10-17T05:01:52.619Z,86.35
2017-10-17T05:02:52.596Z,85.97
2017-10-17T05:03:52.568Z,86.64
2017-10-17T05:04:52.852Z,85.97
2017-10-17T05:05:52.528Z,86.25
2017-10-17T05:06:52.501Z,85.97
2017-10-17T05:07:52.479Z,86.83
2017-10-17T05:08:52.458Z,86.64
2017-10-17T05:09:52.438Z,86.83
2017-10-17T05:10:52.414Z,86.35
2017-10-17T05:11:52.391Z,86.45
2017-10-17T05:12:52.367Z,86.64
2017-10-17T05:13:52.345Z,86.93
2017-10-17T05:14:52.328Z,86.54
2017-10-17T05:15:52.303Z,86.64
2017-10-17T05:16:52.277Z,86.74
2017-10-17T05:17:52.261Z,86.54
2017-10-17T05:18:52.236Z,87.12
2017-10-17T05:19:52.212Z,87.21
2017-10-17T05:20:52.192Z,87.12
2017-10-17T05:21:52.167Z,87.31
2017-10-17T05:22:52.150Z,87.02
2017-10-17T05:23:52.124Z,86.74
2017-10-17T05:24:52.100Z,86.74
2017-10-17T05:25:52.081Z,87.02
2017-10-17T05:26:52.060Z,87.50
2017-10-17T05:27:52.034Z,87.50
2017-10-17T05:28:52.011Z,87.70
2017-10-17T05:29:51.989Z,87.31
2017-10-17T05:30:51.968Z,87.02
2017-10-17T05:31:51.944Z,87.41
2017-10-17T05:32:51.926Z,87.50
2017-10-17T05:33:52.155Z,86.64
2017-10-17T05:34:51.880Z,86.74
2017-10-17T05:35:51.857Z,86.93
2017-10-17T05:36:51.838Z,87.41
2017-10-17T05:37:51.812Z,87.21
2017-10-17T05:38:51.787Z,87.02
2017-10-17T05:39:51.767Z,86.83
2017-10-17T05:40:51.742Z,87.12
2017-10-17T05:41:51.729Z,87.02
2017-10-17T05:42:51.700Z,86.64
2017-10-17T05:43:51.677Z,86.45
2017-10-17T05:44:51.666Z,86.25
2017-10-17T05:45:51.635Z,86.64
2017-10-17T05:46:51.607Z,85.88
2017-10-17T05:47:51.590Z,85.88
2017-10-17T05:48:51.580Z,85.68
2017-10-17T05:49:51.543Z,86.07
2017-10-17T05:50:51.526Z,86.16
2017-10-17T05:51:51.494Z,86.16
2017-10-17T05:52:51.474Z,85.78
2017-10-17T05:53:51.454Z,86.07
2017-10-17T05:54:51.432Z,85.49
2017-10-17T05:55:51.406Z,86.25
2017-10-17T05:56:51.632Z,86.25
2017-10-17T05:57:51.365Z,86.54
2017-10-17T05:58:51.344Z,86.64
2017-10-17T05:59:51.318Z,86.54
2017-10-17T06:00:51.297Z,86.35
2017-10-17T06:01:51.270Z,86.54
2017-10-17T06:02:51.249Z,86.74
2017-10-17T06:03:51.240Z,86.64
2017-10-17T06:04:51.202Z,86.54
2017-10-17T06:05:51.186Z,86.54
2017-10-17T06:06:51.158Z,86.93
2017-10-17T06:07:51.144Z,86.25
2017-10-17T06:08:51.464Z,86.64
2017-10-17T06:09:51.098Z,86.83
2017-10-17T06:10:51.092Z,85.88
2017-10-17T06:11:51.051Z,86.35
2017-10-17T06:12:51.030Z,86.45
2017-10-17T06:13:51.005Z,86.16
2017-10-17T06:14:51.278Z,85.68
2017-10-17T06:15:50.960Z,85.78
2017-10-17T06:16:50.946Z,85.58
2017-10-17T06:17:50.914Z,86.07
2017-10-17T06:18:50.889Z,85.68
2017-10-17T06:19:50.867Z,85.49
2017-10-17T06:20:51.093Z,86.16
2017-10-17T06:21:50.828Z,86.64
2017-10-17T06:22:50.798Z,85.68
2017-10-17T06:23:50.777Z,84.72
2017-10-17T06:24:50.755Z,84.15
2017-10-17T06:25:50.740Z,84.25
2017-10-17T06:26:50.708Z,85.01
2017-10-17T06:27:50.686Z,84.15
2017-10-17T06:28:50.664Z,83.76
2017-10-17T06:29:50.645Z,80.99
2017-10-17T06:30:50.623Z,80.70
2017-10-17T06:31:50.598Z,79.64
2017-10-17T06:32:50.574Z,79.26
2017-10-17T06:33:50.558Z,79.36
2017-10-17T06:34:50.536Z,79.45
2017-10-17T06:35:50.515Z,78.97
2017-10-17T06:36:50.489Z,79.55
2017-10-17T06:37:50.462Z,78.30
2017-10-17T06:38:50.447Z,78.78
2017-10-17T06:39:50.419Z,78.88
2017-10-17T06:40:50.398Z,79.26
2017-10-17T06:41:50.375Z,79.36
2017-10-17T06:42:50.360Z,79.64
2017-10-17T06:43:50.337Z,79.16
2017-10-17T06:44:50.306Z,79.16
2017-10-17T06:45:50.292Z,79.36
2017-10-17T06:46:50.265Z,79.64
2017-10-17T06:47:50.240Z,79.74
2017-10-17T06:48:50.220Z,80.03
2017-10-17T06:49:50.194Z,80.51
2017-10-17T06:50:50.171Z,81.04
2017-10-17T06:51:50.153Z,81.52
2017-10-17T06:52:50.139Z,82.42
2017-10-17T06:53:50.104Z,82.62
2017-10-17T06:54:50.084Z,83.44
2017-10-17T06:55:50.062Z,83.34
2017-10-17T06:56:50.038Z,83.82
2017-10-17T06:57:50.020Z,83.72
2017-10-17T06:58:49.993Z,84.11
2017-10-17T06:59:49.976Z,83.92
2017-10-17T07:00:49.951Z,84.30
2017-10-17T07:01:49.927Z,83.72
2017-10-17T07:02:49.911Z,84.20
2017-10-17T07:03:49.885Z,83.53
2017-10-17T07:04:49.861Z,83.29
2017-10-17T07:05:49.840Z,83.82
2017-10-17T07:06:50.174Z,83.29
2017-10-17T07:07:49.798Z,83.38
2017-10-17T07:08:49.773Z,83.05
2017-10-17T07:09:49.753Z,84.11
2017-10-17T07:10:49.733Z,84.01
2017-10-17T07:11:49.705Z,84.20
2017-10-17T07:12:49.933Z,83.76
2017-10-17T07:13:49.667Z,84.58
2017-10-17T07:14:49.638Z,83.95
2017-10-17T07:15:49.624Z,83.58
2017-10-17T07:16:49.594Z,83.67
2017-10-17T07:17:49.596Z,83.76
2017-10-17T07:18:49.553Z,84.39
2017-10-17T07:19:49.528Z,84.39
2017-10-17T07:20:49.512Z,84.39
2017-10-17T07:21:49.480Z,84.20
2017-10-17T07:22:49.459Z,83.82
2017-10-17T07:23:49.437Z,83.63
2017-10-17T07:24:49.415Z,83.25
2017-10-17T07:25:49.392Z,83.34
2017-10-17T07:26:49.371Z,83.25
2017-10-17T07:27:49.348Z,83.72
2017-10-17T07:28:49.323Z,83.34
2017-10-17T07:29:49.303Z,80.66
2017-10-17T07:30:49.280Z,79.32
2017-10-17T07:31:49.260Z,79.64
2017-10-17T07:32:49.245Z,79.32
2017-10-17T07:33:49.215Z,79.22
2017-10-17T07:34:49.197Z,78.36
2017-10-17T07:35:49.169Z,78.84
2017-10-17T07:36:49.152Z,78.17
2017-10-17T07:37:49.128Z,78.30
2017-10-17T07:38:49.111Z,78.30
2017-10-17T07:39:49.090Z,77.34
2017-10-17T07:40:49.060Z,76.57
2017-10-17T07:41:49.035Z,76.96
2017-10-17T07:42:49.265Z,76.86
2017-10-17T07:43:48.993Z,77.34
2017-10-17T07:44:48.967Z,77.34
2017-10-17T07:45:48.946Z,78.11
2017-10-17T07:46:48.927Z,78.27
2017-10-17T07:47:48.906Z,78.74
2017-10-17T07:48:48.881Z,78.45
2017-10-17T07:49:48.857Z,79.13
2017-10-17T07:50:48.836Z,78.74
2017-10-17T07:51:48.822Z,79.13
2017-10-17T07:52:48.792Z,79.22
2017-10-17T07:53:48.781Z,79.60
2017-10-17T07:54:48.749Z,80.08
2017-10-17T07:55:48.729Z,80.08
2017-10-17T07:56:48.709Z,80.47
2017-10-17T07:57:48.684Z,80.76
2017-10-17T07:58:48.659Z,80.94
2017-10-17T07:59:48.899Z,80.85
2017-10-17T08:00:48.622Z,80.66
2017-10-17T08:01:48.594Z,80.47
2017-10-17T08:02:48.573Z,80.37
2017-10-17T08:03:48.555Z,80.56
2017-10-17T08:04:48.531Z,80.66
2017-10-17T08:05:48.508Z,80.94
2017-10-17T08:06:48.488Z,81.04
2017-10-17T08:07:48.463Z,80.76
2017-10-17T08:08:48.439Z,80.66
2017-10-17T08:09:48.421Z,80.08
2017-10-17T08:10:48.403Z,80.47
2017-10-17T08:11:48.677Z,81.04
2017-10-17T08:12:48.354Z,80.37
2017-10-17T08:13:48.328Z,80.66
2017-10-17T08:14:48.317Z,80.27
2017-10-17T08:15:48.293Z,80.47
2017-10-17T08:16:48.266Z,80.47
2017-10-17T08:17:48.242Z,80.66
2017-10-17T08:18:48.219Z,80.66
2017-10-17T08:19:48.203Z,80.27
2017-10-17T08:20:48.177Z,80.47
2017-10-17T08:21:48.158Z,80.94
2017-10-17T08:22:48.132Z,81.04
2017-10-17T08:23:48.117Z,80.85
2017-10-17T08:24:48.096Z,81.23
2017-10-17T08:25:48.068Z,80.27
2017-10-17T08:26:48.047Z,80.85
2017-10-17T08:27:48.025Z,81.33
2017-10-17T08:28:48.002Z,81.52
2017-10-17T08:29:48.240Z,81.90
2017-10-17T08:30:47.961Z,81.13
2017-10-17T08:31:47.940Z,81.33
2017-10-17T08:32:47.917Z,81.43
2017-10-17T08:33:47.891Z,81.90
2017-10-17T08:34:47.874Z,82.29
2017-10-17T08:35:47.851Z,82.48
2017-10-17T08:36:47.831Z,82.38
2017-10-17T08:37:47.808Z,82.09
2017-10-17T08:38:47.789Z,82.09
2017-10-17T08:39:47.762Z,81.62
2017-10-17T08:40:47.738Z,81.52
2017-10-17T08:41:47.721Z,81.52
2017-10-17T08:42:47.714Z,80.85
2017-10-17T08:43:47.675Z,80.94
2017-10-17T08:44:47.653Z,79.99
2017-10-17T08:45:47.641Z,80.27
2017-10-17T08:46:47.609Z,80.51
2017-10-17T08:47:47.590Z,80.70
2017-10-17T08:48:47.567Z,81.18
2017-10-17T08:49:47.545Z,80.47
2017-10-17T08:50:47.530Z,80.85
2017-10-17T08:51:47.502Z,80.94
2017-10-17T08:52:47.482Z,80.85
2017-10-17T08:53:47.459Z,81.43
2017-10-17T08:54:47.443Z,81.43
2017-10-17T08:55:47.422Z,81.04
2017-10-17T08:56:47.394Z,80.37
2017-10-17T08:57:47.375Z,79.80
2017-10-17T08:58:47.353Z,79.51
2017-10-17T08:59:47.333Z,79.22
2017-10-17T09:00:47.310Z,78.74
2017-10-17T09:01:47.288Z,78.55
2017-10-17T09:02:47.264Z,78.36
2017-10-17T09:03:47.245Z,78.17
2017-10-17T09:04:47.223Z,78.78
2017-10-17T09:05:47.203Z,76.96
2017-10-17T09:06:47.188Z,77.21
2017-10-17T09:07:47.170Z,77.21
2017-10-17T09:08:47.139Z,77.15
2017-10-17T09:09:47.118Z,76.86
2017-10-17T09:10:47.098Z,77.59
2017-10-17T09:11:47.077Z,77.15
2017-10-17T09:12:47.054Z,76.67
2017-10-17T09:13:47.030Z,77.40
2017-10-17T09:14:47.016Z,76.86
2017-10-17T09:15:46.990Z,76.96
2017-10-17T09:16:46.970Z,77.15
2017-10-17T09:17:46.944Z,77.15
2017-10-17T09:18:46.929Z,77.06
2017-10-17T09:19:46.905Z,77.44
2017-10-17T09:20:46.884Z,76.96
2017-10-17T09:21:46.859Z,76.86
2017-10-17T09:22:46.839Z,77.34
2017-10-17T09:23:46.824Z,76.67
2017-10-17T09:24:46.800Z,76.77
2017-10-17T09:25:46.779Z,76.77
2017-10-17T09:26:46.759Z,76.86
2017-10-17T09:27:46.738Z,77.53
2017-10-17T09:28:46.719Z,76.00
2017-10-17T09:29:46.696Z,75.71
2017-10-17T09:30:46.671Z,76.77
2017-10-17T09:31:46.652Z,77.25
2017-10-17T09:32:46.631Z,76.67
2017-10-17T09:33:46.613Z,76.57
2017-10-17T09:34:46.587Z,75.75
2017-10-17T09:35:46.573Z,76.23
2017-10-17T09:36:46.553Z,75.95
2017-10-17T09:37:46.532Z,74.79
2017-10-17T09:38:46.505Z,75.37
2017-10-17T09:39:46.485Z,74.79
2017-10-17T09:40:46.464Z,75.75
2017-10-17T09:41:46.450Z,75.02
2017-10-17T09:42:46.422Z,74.31
2017-10-17T09:43:46.403Z,75.46
2017-10-17T09:44:46.412Z,74.79
2017-10-17T09:45:46.621Z,74.22
2017-10-17T09:46:46.340Z,75.08
2017-10-17T09:47:46.318Z,74.02
2017-10-17T09:48:46.316Z,74.31
2017-10-17T09:49:46.280Z,74.02
2017-10-17T09:50:46.260Z,73.93
2017-10-17T09:51:46.244Z,74.02
2017-10-17T09:52:46.216Z,73.93
2017-10-17T09:53:46.202Z,73.39
2017-10-17T09:54:46.183Z,73.35
2017-10-17T09:55:46.157Z,73.74
2017-10-17T09:56:46.145Z,73.39
2017-10-17T09:57:46.125Z,73.49
2017-10-17T09:58:46.097Z,73.65
2017-10-17T09:59:46.084Z,73.20
2017-10-17T10:00:46.059Z,73.58
2017-10-17T10:01:46.042Z,73.00
2017-10-17T10:02:46.018Z,72.81
2017-10-17T10:03:45.998Z,72.24
2017-10-17T10:04:45.979Z,72.81
2017-10-17T10:05:45.960Z,72.33
2017-10-17T10:06:45.940Z,72.63
2017-10-17T10:07:45.922Z,72.53
2017-10-17T10:08:45.899Z,71.66
2017-10-17T10:09:45.898Z,71.09
2017-10-17T10:10:45.860Z,70.51
2017-10-17T10:11:45.840Z,71.57
2017-10-17T10:12:45.820Z,70.80
2017-10-17T10:13:45.806Z,70.80
2017-10-17T10:14:46.038Z,70.32
2017-10-17T10:15:45.763Z,70.61
2017-10-17T10:16:45.739Z,71.76
2017-10-17T10:17:45.730Z,70.99
2017-10-17T10:18:45.699Z,70.51
2017-10-17T10:19:45.687Z,70.80
2017-10-17T10:20:45.663Z,71.86
2017-10-17T10:21:45.641Z,70.32
2017-10-17T10:22:45.628Z,70.51
2017-10-17T10:23:45.608Z,70.42
2017-10-17T10:24:45.588Z,71.09
2017-10-17T10:25:45.572Z,71.66
2017-10-17T10:26:45.545Z,70.32
2017-10-17T10:27:45.557Z,69.84
2017-10-17T10:28:45.504Z,70.23
2017-10-17T10:29:45.489Z,70.03
2017-10-17T10:30:45.473Z,69.84
2017-10-17T10:31:45.445Z,69.97
2017-10-17T10:32:45.430Z,69.20
2017-10-17T10:33:45.407Z,69.68
2017-10-17T10:34:45.387Z,69.68
2017-10-17T10:35:45.368Z,70.55
2017-10-17T10:36:45.351Z,70.07
2017-10-17T10:37:45.329Z,69.46
2017-10-17T10:38:45.315Z,69.56
2017-10-17T10:39:45.291Z,69.59
2017-10-17T10:40:45.276Z,69.40
2017-10-17T10:41:45.254Z,69.40
2017-10-17T10:42:45.232Z,68.63
2017-10-17T10:43:45.214Z,67.29
2017-10-17T10:44:45.197Z,67.96
2017-10-17T10:45:45.175Z,68.40
2017-10-17T10:46:45.159Z,69.30
2017-10-17T10:47:45.137Z,69.11
2017-10-17T10:48:45.126Z,69.40
2017-10-17T10:49:45.352Z,67.57
2017-10-17T10:50:45.083Z,66.52
2017-10-17T10:51:45.064Z,66.61
2017-10-17T10:52:45.043Z,67.57
2017-10-17T10:53:45.030Z,68.15
2017-10-17T10:54:45.007Z,67.57
2017-10-17T10:55:44.996Z,68.34
2017-10-17T10:56:44.967Z,67.86
2017-10-17T10:57:44.955Z,67.09
2017-10-17T10:58:44.930Z,66.23
2017-10-17T10:59:44.912Z,66.61
2017-10-17T11:00:44.890Z,67.19
2017-10-17T11:01:44.872Z,67.57
2017-10-17T11:02:44.858Z,67.96
2017-10-17T11:03:44.841Z,67.67
2017-10-17T11:04:44.818Z,67.38
2017-10-17T11:05:44.798Z,67.19
2017-10-17T11:06:44.778Z,67.29
2017-10-17T11:07:44.763Z,67.92
2017-10-17T11:08:44.741Z,67.25
2017-10-17T11:09:44.727Z,68.02
2017-10-17T11:10:44.705Z,68.30
2017-10-17T11:11:44.687Z,66.39
2017-10-17T11:12:44.668Z,67.25
2017-10-17T11:13:45.204Z,67.83
2017-10-17T11:14:44.629Z,67.06
2017-10-17T11:15:44.612Z,67.35
2017-10-17T11:16:44.591Z,68.12
2017-10-17T11:17:44.577Z,68.69
2017-10-17T11:18:44.587Z,68.88
2017-10-17T11:19:44.532Z,67.83
2017-10-17T11:20:44.517Z,68.12
2017-10-17T11:21:44.496Z,68.12
2017-10-17T11:22:44.479Z,67.73
2017-10-17T11:23:44.460Z,68.30
2017-10-17T11:24:44.444Z,67.92
2017-10-17T11:25:44.424Z,66.86
2017-10-17T11:26:44.405Z,67.44
2017-10-17T11:27:44.380Z,67.83
2017-10-17T11:28:44.359Z,67.54
2017-10-17T11:29:44.339Z,67.44
2017-10-17T11:30:44.337Z,68.12
2017-10-17T11:31:44.301Z,66.96
2017-10-17T11:32:44.285Z,67.35
2017-10-17T11:33:44.263Z,66.67
2017-10-17T11:34:44.249Z,66.86
2017-10-17T11:35:44.229Z,66.10
2017-10-17T11:36:44.203Z,66.00
2017-10-17T11:37:44.185Z,66.49
2017-10-17T11:38:44.165Z,66.86
2017-10-17T11:39:44.154Z,65.62
2017-10-17T11:40:44.130Z,66.96
2017-10-17T11:41:44.107Z,66.39
2017-10-17T11:42:44.090Z,65.33
2017-10-17T11:43:44.076Z,65.91
2017-10-17T11:44:44.067Z,66.39
2017-10-17T11:45:44.041Z,65.43
2017-10-17T11:46:44.010Z,65.05
2017-10-17T11:47:44.004Z,65.62
2017-10-17T11:48:43.973Z,65.91
2017-10-17T11:49:43.953Z,65.91
2017-10-17T11:50:43.941Z,64.85
2017-10-17T11:51:43.924Z,65.33
2017-10-17T11:52:43.896Z,64.79
2017-10-17T11:53:44.230Z,64.40
2017-10-17T11:54:43.862Z,63.99
2017-10-17T11:55:43.839Z,64.95
2017-10-17T11:56:43.822Z,65.14
2017-10-17T11:57:43.806Z,64.85
2017-10-17T11:58:43.786Z,64.28
2017-10-17T11:59:43.765Z,64.56
2017-10-17T12:00:43.748Z,63.42
2017-10-17T12:01:43.721Z,63.73
2017-10-17T12:02:43.710Z,63.64
2017-10-17T12:03:43.687Z,62.87
2017-10-17T12:04:43.675Z,62.48
2017-10-17T12:05:43.645Z,62.39
2017-10-17T12:06:43.627Z,62.01
2017-10-17T12:07:43.608Z,62.48
2017-10-17T12:08:43.598Z,63.35
2017-10-17T12:09:43.572Z,63.92
2017-10-17T12:10:43.554Z,63.25
2017-10-17T12:11:43.535Z,63.54
2017-10-17T12:12:43.525Z,62.77
2017-10-17T12:13:43.497Z,62.48
2017-10-17T12:14:43.483Z,61.91
2017-10-17T12:15:43.459Z,60.38
2017-10-17T12:16:43.442Z,61.91
2017-10-17T12:17:43.677Z,60.85
2017-10-17T12:18:43.410Z,61.43
2017-10-17T12:19:43.388Z,60.95
2017-10-17T12:20:43.365Z,61.05
2017-10-17T12:21:43.350Z,62.10
2017-10-17T12:22:43.329Z,62.48
2017-10-17T12:23:43.310Z,62.10
2017-10-17T12:24:43.292Z,61.91
2017-10-17T12:25:43.275Z,61.81
2017-10-17T12:26:43.258Z,61.81
2017-10-17T12:27:43.238Z,61.14
2017-10-17T12:28:43.218Z,62.48
2017-10-17T12:29:43.205Z,62.58
2017-10-17T12:30:43.182Z,62.01
2017-10-17T12:31:43.162Z,62.01
2017-10-17T12:32:43.142Z,60.95
2017-10-17T12:33:43.135Z,60.95
2017-10-17T12:34:43.123Z,61.14
2017-10-17T12:35:43.088Z,61.78
2017-10-17T12:36:43.072Z,62.55
2017-10-17T12:37:43.061Z,63.60
2017-10-17T12:38:43.073Z,62.84
2017-10-17T12:39:43.015Z,62.36
2017-10-17T12:40:43.301Z,63.60
2017-10-17T12:41:42.973Z,63.89
2017-10-17T12:42:42.957Z,64.02
2017-10-17T12:43:42.937Z,63.79
2017-10-17T12:44:42.921Z,63.32
2017-10-17T12:45:42.908Z,63.79
2017-10-17T12:46:43.132Z,63.79
2017-10-17T12:47:42.863Z,63.60
2017-10-17T12:48:42.845Z,63.89
2017-10-17T12:49:42.825Z,64.47
2017-10-17T12:50:42.806Z,64.56
2017-10-17T12:51:42.786Z,64.47
2017-10-17T12:52:42.769Z,64.28